Time;durP1;ratioP1;P1;durP2;ratioP2;P2;SDS_P1;SDS_P2;PMS_P1;PMS_P2;Temp;Humidity;BMP_temperature;BMP_pressure;BME280_temperature;BME280_humidity;BME280_pressure;Samples;Min_cycle;Max_cycle;Signal;HPM_P1;HPM_P2
2021/07/20 00:00:35;;;;;;;15.50;5.75;;;;;;;;;;8259687;28;20475;-75
2021/07/20 00:04:40;;;;;;;8.85;5.63;;;;;;;;;;8261848;28;20471;-74
2021/07/20 00:09:08;;;;;;;12.25;6.43;;;;;;;;;;8276072;28;20400;-75
2021/07/20 00:13:13;;;;;;;12.43;5.50;;;;;;;;;;8261773;28;20068;-74
2021/07/20 00:17:22;;;;;;;9.30;5.57;;;;;;;;;;8261303;28;20053;-74
2021/07/20 00:21:27;;;;;;;10.18;6.05;;;;;;;;;;8093605;28;5001033;-74
2021/07/20 00:25:32;;;;;;;11.05;6.07;;;;;;;;;;8293369;28;20063;-75
2021/07/20 00:29:36;;;;;;;10.15;6.40;;;;;;;;;;8290796;28;20049;-75
2021/07/20 00:33:42;;;;;;;12.55;6.38;;;;;;;;;;8291837;28;20371;-74
2021/07/20 00:37:51;;;;;;;10.07;5.72;;;;;;;;;;8291403;28;20413;-74
2021/07/20 00:41:58;;;;;;;10.68;5.68;;;;;;;;;;8292044;28;20390;-75
2021/07/20 00:46:04;;;;;;;9.52;5.45;;;;;;;;;;8258979;28;20064;-75
2021/07/20 00:50:14;;;;;;;10.27;5.35;;;;;;;;;;8292342;28;20052;-74
2021/07/20 00:54:21;;;;;;;12.23;6.43;;;;;;;;;;8294309;28;20363;-74
2021/07/20 00:58:27;;;;;;;10.38;5.47;;;;;;;;;;8291993;28;20436;-74
2021/07/20 01:02:32;;;;;;;16.88;5.82;;;;;;;;;;8292397;28;20321;-74
2021/07/20 01:06:43;;;;;;;15.40;6.03;;;;;;;;;;8287453;28;20376;-74
2021/07/20 01:10:52;;;;;;;13.45;5.43;;;;;;;;;;8254481;28;20460;-75
2021/07/20 01:15:03;;;;;;;10.68;6.22;;;;;;;;;;8239971;28;20490;-73
2021/07/20 01:19:23;;;;;;;11.60;5.80;;;;;;;;;;8240726;28;20359;-74
2021/07/20 01:23:36;;;;;;;10.90;5.60;;;;;;;;;;8255853;28;20415;-73
2021/07/20 01:27:52;;;;;;;11.07;5.43;;;;;;;;;;8239696;28;20578;-73
2021/07/20 01:32:01;;;;;;;16.00;6.10;;;;;;;;;;8157204;28;20389;-74
2021/07/20 01:36:10;;;;;;;10.30;5.22;;;;;;;;;;8157364;28;20406;-74
2021/07/20 01:40:21;;;;;;;21.45;6.75;;;;;;;;;;8176111;28;20460;-74
2021/07/20 01:44:28;;;;;;;;;;;;;;;;;;8239269;28;20483;-73
2021/07/20 01:48:41;;;;;;;17.90;5.85;;;;;;;;;;8252569;28;20312;-74
2021/07/20 01:52:56;;;;;;;10.30;5.63;;;;;;;;;;8240161;28;20468;-74
2021/07/20 01:57:01;;;;;;;11.75;6.00;;;;;;;;;;8238768;28;20487;-73
2021/07/20 02:01:44;;;;;;;14.43;5.65;;;;;;;;;;8246028;28;20397;-75
2021/07/20 02:10:35;;;;;;;12.48;5.88;;;;;;;;;;8289826;28;20483;-74
2021/07/20 02:14:50;;;;;;;10.82;5.93;;;;;;;;;;8274136;28;20386;-75
2021/07/20 02:19:18;;;;;;;8.57;5.43;;;;;;;;;;8289304;28;20350;-75
2021/07/20 02:23:34;;;;;;;11.40;5.63;;;;;;;;;;8239049;28;20340;-75
2021/07/20 02:27:41;;;;;;;10.52;6.10;;;;;;;;;;8289966;28;20459;-74
2021/07/20 02:32:05;;;;;;;14.27;5.38;;;;;;;;;;8220680;28;20388;-74
2021/07/20 02:36:10;;;;;;;12.93;5.80;;;;;;;;;;8204268;28;20076;-73
2021/07/20 02:40:28;;;;;;;10.10;5.82;;;;;;;;;;8206060;28;20360;-74
2021/07/20 02:45:04;;;;;;;11.90;6.05;;;;;;;;;;8144331;28;20072;-74
2021/07/20 02:49:17;;;;;;;14.95;6.07;;;;;;;;;;8154655;28;20062;-74
2021/07/20 02:53:23;;;;;;;10.27;5.55;;;;;;;;;;8125192;28;20429;-74
2021/07/20 02:57:37;;;;;;;10.18;5.82;;;;;;;;;;8138397;28;20453;-75
2021/07/20 03:01:46;;;;;;;13.35;6.07;;;;;;;;;;8086909;28;20050;-74
2021/07/20 03:05:57;;;;;;;9.80;6.47;;;;;;;;;;8124108;28;20505;-74
2021/07/20 03:10:06;;;;;;;11.70;5.95;;;;;;;;;;8107450;28;20363;-74
2021/07/20 03:14:17;;;;;;;15.60;6.78;;;;;;;;;;8107710;28;20470;-74
2021/07/20 03:18:38;;;;;;;9.10;5.40;;;;;;;;;;8123443;28;20434;-73
2021/07/20 03:22:45;;;;;;;9.52;5.43;;;;;;;;;;8129963;28;20378;-74
2021/07/20 03:26:56;;;;;;;7.85;5.45;;;;;;;;;;8142629;28;20057;-74
2021/07/20 03:31:04;;;;;;;10.77;5.17;;;;;;;;;;8176733;28;20585;-74
2021/07/20 03:35:12;;;;;;;;;;;;;;;;;;8210234;28;20460;-74
2021/07/20 03:39:27;;;;;;;14.00;5.65;;;;;;;;;;8280882;28;20346;-74
2021/07/20 03:43:33;;;;;;;15.82;5.55;;;;;;;;;;8294250;28;20367;-74
2021/07/20 03:47:44;;;;;;;12.35;6.30;;;;;;;;;;8293406;28;20680;-74
2021/07/20 03:52:06;;;;;;;18.52;6.03;;;;;;;;;;8293267;28;20352;-74
2021/07/20 03:56:15;;;;;;;8.57;4.88;;;;;;;;;;8293624;28;20498;-75
2021/07/20 04:00:31;;;;;;;12.05;5.55;;;;;;;;;;8295161;28;20375;-75
2021/07/20 04:04:44;;;;;;;13.20;5.70;;;;;;;;;;8276190;28;20367;-75
2021/07/20 04:08:57;;;;;;;8.70;5.00;;;;;;;;;;8294548;28;20497;-75
2021/07/20 04:13:23;;;;;;;8.90;5.45;;;;;;;;;;8306101;28;20052;-74
2021/07/20 04:18:01;;;;;;;15.60;6.25;;;;;;;;;;8260261;28;20406;-74
2021/07/20 04:22:08;;;;;;;10.15;5.30;;;;;;;;;;8293478;28;20331;-75
2021/07/20 04:26:15;;;;;;;10.02;5.22;;;;;;;;;;8275519;28;20071;-75
2021/07/20 04:30:20;;;;;;;11.82;6.43;;;;;;;;;;8292117;28;20513;-75
2021/07/20 04:34:27;;;;;;;13.87;5.90;;;;;;;;;;8292029;28;20352;-74
2021/07/20 04:38:50;;;;;;;9.48;5.90;;;;;;;;;;8291149;28;21011;-75
2021/07/20 04:42:56;;;;;;;13.57;5.43;;;;;;;;;;8292574;28;20363;-74
2021/07/20 04:47:01;;;;;;;10.27;5.90;;;;;;;;;;8275850;28;20483;-75
2021/07/20 04:51:09;;;;;;;16.27;6.10;;;;;;;;;;8274454;28;20379;-74
2021/07/20 04:55:17;;;;;;;13.88;5.88;;;;;;;;;;8292314;28;20490;-75
2021/07/20 04:59:24;;;;;;;9.85;5.80;;;;;;;;;;8293014;28;20374;-74
2021/07/20 05:03:31;;;;;;;11.93;6.50;;;;;;;;;;8292039;28;20041;-73
2021/07/20 05:07:38;;;;;;;;;;;;;;;;;;8291969;28;20406;-74
2021/07/20 05:11:45;;;;;;;15.43;6.83;;;;;;;;;;8276024;28;20370;-74
2021/07/20 05:15:52;;;;;;;15.85;7.00;;;;;;;;;;8291704;28;20044;-74
2021/07/20 05:20:00;;;;;;;13.48;6.90;;;;;;;;;;8292478;28;20063;-74
2021/07/20 05:24:19;;;;;;;14.60;6.40;;;;;;;;;;8289989;28;20458;-74
2021/07/20 05:28:32;;;;;;;10.65;6.15;;;;;;;;;;8290471;28;20362;-74
2021/07/20 05:32:43;;;;;;;11.70;6.47;;;;;;;;;;8275012;28;20395;-75
2021/07/20 05:36:55;;;;;;;10.90;6.30;;;;;;;;;;8291308;28;20048;-74
2021/07/20 05:41:00;;;;;;;13.43;6.82;;;;;;;;;;8225121;28;20499;-75
2021/07/20 05:47:17;;;;;;;18.65;6.72;;;;;;;;;;8320870;27;1628038;-74
2021/07/20 05:51:39;;;;;;;17.45;6.85;;;;;;;;;;8354145;28;20469;-74
2021/07/20 05:55:55;;;;;;;12.05;5.78;;;;;;;;;;8370241;28;20350;-75
2021/07/20 05:59:59;;;;;;;15.13;6.40;;;;;;;;;;8369576;28;20480;-74
2021/07/20 06:04:20;;;;;;;14.88;7.03;;;;;;;;;;8370795;28;20400;-75
2021/07/20 06:08:27;;;;;;;16.40;6.80;;;;;;;;;;8369764;28;20350;-74
2021/07/20 06:13:12;;;;;;;13.38;6.18;;;;;;;;;;8282244;27;20635;-75
2021/07/20 06:17:23;;;;;;;12.10;6.38;;;;;;;;;;8281456;28;20476;-75
2021/07/20 06:21:29;;;;;;;16.58;6.03;;;;;;;;;;8286943;28;20517;-74
2021/07/20 06:25:34;;;;;;;11.18;6.40;;;;;;;;;;8300811;28;20044;-74
2021/07/20 06:29:40;;;;;;;15.60;6.32;;;;;;;;;;8286065;28;20332;-73
2021/07/20 06:33:47;;;;;;;13.68;6.32;;;;;;;;;;8300885;28;20463;-74
2021/07/20 06:37:52;;;;;;;11.40;6.30;;;;;;;;;;8285823;28;20037;-74
2021/07/20 06:41:58;;;;;;;13.95;6.40;;;;;;;;;;8299421;28;20368;-74
2021/07/20 06:46:04;;;;;;;12.77;5.82;;;;;;;;;;8299522;28;20049;-74
2021/07/20 06:50:11;;;;;;;12.63;6.60;;;;;;;;;;8298372;28;20067;-73
2021/07/20 06:54:16;;;;;;;12.15;6.18;;;;;;;;;;8282479;28;20372;-74
2021/07/20 06:58:22;;;;;;;12.45;5.88;;;;;;;;;;8298623;28;20353;-74
2021/07/20 07:02:28;;;;;;;18.10;6.57;;;;;;;;;;8299146;28;20351;-73
2021/07/20 07:06:35;;;;;;;17.23;7.05;;;;;;;;;;8298645;28;20440;-73
2021/07/20 07:10:40;;;;;;;14.30;6.30;;;;;;;;;;8297821;28;20488;-74
2021/07/20 07:14:45;;;;;;;14.30;6.40;;;;;;;;;;8298667;28;20375;-73
2021/07/20 07:18:52;;;;;;;10.23;6.53;;;;;;;;;;8298402;28;20420;-73
2021/07/20 07:22:58;;;;;;;15.88;6.95;;;;;;;;;;8284893;28;20522;-72
2021/07/20 07:27:04;;;;;;;12.90;7.35;;;;;;;;;;8261332;28;20399;-73
2021/07/20 07:31:13;;;;;;;14.00;6.20;;;;;;;;;;8276040;28;20495;-73
2021/07/20 07:35:42;;;;;;;13.38;5.95;;;;;;;;;;8204270;27;20988;-72
2021/07/20 07:39:51;;;;;;;16.42;7.13;;;;;;;;;;8317854;28;20467;-72
2021/07/20 07:43:57;;;;;;;18.38;6.35;;;;;;;;;;8300670;28;20379;-72
2021/07/20 07:48:03;;;;;;;17.65;5.95;;;;;;;;;;8298962;28;20443;-72
2021/07/20 07:52:09;;;;;;;13.70;6.97;;;;;;;;;;8202150;28;20474;-73
2021/07/20 07:56:15;;;;;;;14.77;6.15;;;;;;;;;;8305724;28;20455;-73
2021/07/20 08:00:20;;;;;;;12.43;6.22;;;;;;;;;;8333560;28;20443;-73
2021/07/20 08:04:28;;;;;;;10.77;5.40;;;;;;;;;;8316683;28;20374;-73
2021/07/20 08:08:35;;;;;;;;;;;;;;;;;;8300531;28;20374;-72
2021/07/20 08:12:45;;;;;;;14.00;6.50;;;;;;;;;;8214585;28;20428;-73
2021/07/20 08:16:55;;;;;;;11.18;6.20;;;;;;;;;;8320097;28;20479;-72
2021/07/20 08:21:04;;;;;;;17.85;5.82;;;;;;;;;;8315976;28;20509;-72
2021/07/20 08:25:27;;;;;;;11.70;5.80;;;;;;;;;;8318821;28;20048;-73
2021/07/20 08:29:38;;;;;;;10.63;5.90;;;;;;;;;;8316068;28;20479;-72
2021/07/20 08:33:46;;;;;;;12.68;6.15;;;;;;;;;;8314746;28;20352;-72
2021/07/20 08:37:54;;;;;;;14.88;7.28;;;;;;;;;;8280596;28;20501;-72
2021/07/20 08:42:41;;;;;;;10.02;5.10;;;;;;;;;;8316369;28;20475;-73
2021/07/20 08:47:08;;;;;;;12.37;5.90;;;;;;;;;;8260794;28;20342;-73
2021/07/20 08:51:36;;;;;;;18.07;6.10;;;;;;;;;;8295827;28;20743;-73
2021/07/20 08:55:44;;;;;;;14.10;5.75;;;;;;;;;;8297764;28;20455;-73
2021/07/20 09:00:11;;;;;;;12.15;6.35;;;;;;;;;;8293387;28;20459;-73
2021/07/20 09:04:40;;;;;;;12.38;5.75;;;;;;;;;;8278149;28;20368;-73
2021/07/20 09:09:14;;;;;;;14.00;6.07;;;;;;;;;;8294975;28;20036;-72
2021/07/20 09:13:28;;;;;;;15.90;6.35;;;;;;;;;;8295853;28;20478;-73
2021/07/20 09:18:05;;;;;;;15.55;6.18;;;;;;;;;;8292608;28;20478;-72
2021/07/20 09:22:20;;;;;;;12.18;5.25;;;;;;;;;;8154220;28;20058;-72
2021/07/20 09:26:31;;;;;;;14.25;6.05;;;;;;;;;;8273648;28;20479;-73
2021/07/20 09:30:43;;;;;;;13.00;5.38;;;;;;;;;;8273008;28;20066;-72
2021/07/20 09:35:04;;;;;;;15.20;5.75;;;;;;;;;;8291859;28;20052;-72
2021/07/20 09:39:47;;;;;;;12.68;5.38;;;;;;;;;;8274904;28;20062;-72
2021/07/20 09:44:27;;;;;;;12.50;6.32;;;;;;;;;;8256797;28;20471;-72
2021/07/20 09:49:05;;;;;;;11.40;5.72;;;;;;;;;;8292740;28;20067;-72
2021/07/20 09:53:46;;;;;;;11.73;5.70;;;;;;;;;;8292272;28;20472;-72
2021/07/20 09:58:01;;;;;;;11.65;5.53;;;;;;;;;;8256496;28;20379;-75
2021/07/20 10:02:24;;;;;;;8.65;4.63;;;;;;;;;;8178081;28;20074;-73
2021/07/20 10:07:00;;;;;;;8.50;4.32;;;;;;;;;;8275198;28;20049;-72
2021/07/20 10:11:21;;;;;;;11.18;5.15;;;;;;;;;;8289945;28;20052;-73
2021/07/20 10:16:13;;;;;;;13.95;5.40;;;;;;;;;;8291642;28;20041;-73
2021/07/20 10:20:22;;;;;;;11.43;4.65;;;;;;;;;;8280025;28;20349;-73
2021/07/20 10:24:32;;;;;;;11.63;5.85;;;;;;;;;;8290442;28;20045;-73
2021/07/20 10:28:51;;;;;;;12.18;5.95;;;;;;;;;;8275999;28;20071;-72
2021/07/20 10:33:30;;;;;;;9.65;4.93;;;;;;;;;;8289982;28;20486;-73
2021/07/20 10:37:39;;;;;;;14.40;4.57;;;;;;;;;;8272292;28;20422;-73
2021/07/20 10:41:49;;;;;;;14.00;4.53;;;;;;;;;;8289405;28;20374;-72
2021/07/20 10:45:55;;;;;;;11.00;4.43;;;;;;;;;;8290984;28;20045;-72
2021/07/20 10:50:16;;;;;;;10.38;4.43;;;;;;;;;;8306523;28;20356;-72
2021/07/20 10:54:29;;;;;;;7.70;4.10;;;;;;;;;;8288768;28;20378;-72
2021/07/20 10:58:46;;;;;;;10.10;3.78;;;;;;;;;;8288916;28;20040;-73
2021/07/20 11:03:03;;;;;;;;;;;;;;;;;;8292428;28;20495;-72
2021/07/20 11:07:09;;;;;;;;;;;;;;;;;;8289830;28;20369;-74
2021/07/20 11:11:31;;;;;;;4.72;2.90;;;;;;;;;;8290763;28;20343;-72
2021/07/20 11:15:43;;;;;;;7.05;3.55;;;;;;;;;;8289361;28;20379;-72
2021/07/20 11:19:52;;;;;;;7.00;3.88;;;;;;;;;;8273063;28;20037;-72
2021/07/20 11:23:59;;;;;;;9.63;3.15;;;;;;;;;;8288274;28;20489;-73
2021/07/20 11:28:05;;;;;;;9.43;3.00;;;;;;;;;;8288046;28;20513;-72
2021/07/20 11:32:22;;;;;;;6.03;2.88;;;;;;;;;;8284064;28;20455;-73
2021/07/20 11:36:28;;;;;;;4.95;2.85;;;;;;;;;;8287743;28;20478;-73
2021/07/20 11:40:59;;;;;;;8.32;3.58;;;;;;;;;;8272956;28;20353;-73
2021/07/20 11:45:09;;;;;;;6.00;2.92;;;;;;;;;;8270880;28;20063;-73
2021/07/20 11:49:37;;;;;;;6.85;2.80;;;;;;;;;;8288679;28;20386;-73
2021/07/20 11:54:02;;;;;;;7.30;3.05;;;;;;;;;;8289965;28;20406;-72
2021/07/20 11:58:14;;;;;;;5.13;2.88;;;;;;;;;;8287650;28;20343;-72
2021/07/20 12:02:56;;;;;;;6.63;2.95;;;;;;;;;;8287518;28;20355;-74
2021/07/20 12:07:28;;;;;;;7.40;3.72;;;;;;;;;;8287692;28;20486;-72
2021/07/20 12:11:38;;;;;;;5.70;3.40;;;;;;;;;;8289125;28;20329;-72
2021/07/20 12:15:46;;;;;;;9.60;3.13;;;;;;;;;;8289909;28;20356;-73
2021/07/20 12:19:56;;;;;;;7.07;3.75;;;;;;;;;;8306041;28;20390;-72
2021/07/20 12:24:09;;;;;;;6.03;3.33;;;;;;;;;;8295803;28;20367;-72
2021/07/20 12:28:14;;;;;;;8.27;3.45;;;;;;;;;;8278517;28;20052;-73
2021/07/20 12:32:19;;;;;;;4.97;3.38;;;;;;;;;;8309922;28;20044;-72
2021/07/20 12:36:23;;;;;;;4.78;2.88;;;;;;;;;;8309268;28;20060;-72
2021/07/20 12:40:29;;;;;;;11.27;3.70;;;;;;;;;;8293005;28;20452;-72
2021/07/20 12:44:35;;;;;;;49.20;7.07;;;;;;;;;;8295408;28;20486;-72
2021/07/20 12:48:53;;;;;;;9.60;4.38;;;;;;;;;;8278779;28;20070;-73
2021/07/20 12:52:59;;;;;;;10.25;4.35;;;;;;;;;;8293806;28;20337;-73
2021/07/20 12:57:05;;;;;;;6.32;3.97;;;;;;;;;;8309821;28;20475;-73
2021/07/20 13:01:13;;;;;;;6.63;3.78;;;;;;;;;;8295199;28;20546;-73
2021/07/20 13:05:20;;;;;;;11.35;4.45;;;;;;;;;;8293348;28;20486;-72
2021/07/20 13:09:25;;;;;;;16.47;5.03;;;;;;;;;;8294140;28;20672;-72
2021/07/20 13:13:30;;;;;;;12.55;4.63;;;;;;;;;;8292367;28;20487;-72
2021/07/20 13:17:37;;;;;;;10.23;4.40;;;;;;;;;;8293015;28;20337;-72
2021/07/20 13:21:48;;;;;;;9.98;4.57;;;;;;;;;;8275319;28;20486;-73
2021/07/20 13:29:42;;;;;;;10.25;4.75;;;;;;;;;;8181315;27;20470;-72
2021/07/20 13:33:47;;;;;;;12.45;4.35;;;;;;;;;;8234667;28;20383;-72
2021/07/20 13:37:54;;;;;;;12.95;5.25;;;;;;;;;;8286021;28;20052;-72
2021/07/20 13:41:59;;;;;;;12.43;4.40;;;;;;;;;;8284982;28;20052;-72
2021/07/20 13:46:07;;;;;;;12.57;4.57;;;;;;;;;;8267400;28;20375;-72
2021/07/20 13:50:13;;;;;;;;;;;;;;;;;;8284327;28;20351;-72
2021/07/20 13:54:19;;;;;;;17.95;7.43;;;;;;;;;;8285488;28;20279;-72
2021/07/20 13:58:26;;;;;;;17.73;7.35;;;;;;;;;;8283510;28;20359;-72
2021/07/20 14:02:31;;;;;;;20.92;7.00;;;;;;;;;;8283151;28;20371;-71
2021/07/20 14:06:39;;;;;;;19.58;6.57;;;;;;;;;;8284551;28;20471;-71
2021/07/20 14:10:44;;;;;;;17.63;6.57;;;;;;;;;;8285115;28;20044;-72
2021/07/20 14:14:52;;;;;;;26.77;6.72;;;;;;;;;;8286112;28;20479;-72
2021/07/20 14:18:56;;;;;;;;;;;;;;;;;;8285185;28;20371;-72
2021/07/20 14:23:03;;;;;;;15.82;5.75;;;;;;;;;;8282686;28;20331;-72
2021/07/20 14:27:08;;;;;;;14.90;6.43;;;;;;;;;;8283862;28;20067;-72
2021/07/20 14:31:15;;;;;;;12.20;5.95;;;;;;;;;;8282901;28;20494;-72
2021/07/20 14:35:36;;;;;;;15.47;6.90;;;;;;;;;;8239326;28;20468;-72
2021/07/20 14:39:41;;;;;;;18.65;7.43;;;;;;;;;;8269175;28;20091;-72
2021/07/20 14:43:46;;;;;;;16.85;7.70;;;;;;;;;;8260789;28;20479;-71
2021/07/20 14:47:51;;;;;;;15.85;6.63;;;;;;;;;;8260688;28;20468;-73
2021/07/20 14:51:56;;;;;;;23.77;7.80;;;;;;;;;;8261564;28;20355;-72
2021/07/20 14:56:12;;;;;;;17.00;7.57;;;;;;;;;;8259212;28;20510;-72
2021/07/20 15:00:59;;;;;;;25.20;7.90;;;;;;;;;;8243167;28;20351;-71
2021/07/20 15:05:17;;;;;;;;;;;;;;;;;;8262004;28;20350;-71
2021/07/20 15:09:24;;;;;;;;;;;;;;;;;;8275839;28;20267;-72
2021/07/20 15:13:29;;;;;;;16.40;4.70;;;;;;;;;;8262491;28;19943;-72
2021/07/20 15:17:34;;;;;;;14.60;5.68;;;;;;;;;;8260462;28;20073;-72
2021/07/20 15:21:45;;;;;;;13.57;4.50;;;;;;;;;;8242922;28;20056;-72
2021/07/20 15:25:50;;;;;;;14.95;5.47;;;;;;;;;;8256701;28;20487;-72
2021/07/20 15:29:58;;;;;;;11.55;4.78;;;;;;;;;;8258339;28;20362;-72
2021/07/20 15:34:04;;;;;;;17.75;5.13;;;;;;;;;;8258249;28;20379;-71
2021/07/20 15:38:09;;;;;;;9.15;4.22;;;;;;;;;;8259894;28;20472;-73
2021/07/20 15:42:17;;;;;;;27.70;5.30;;;;;;;;;;8259593;28;20518;-72
2021/07/20 15:46:25;;;;;;;11.93;3.85;;;;;;;;;;8260817;28;20460;-72
2021/07/20 15:50:34;;;;;;;9.05;4.05;;;;;;;;;;8256891;28;20471;-72
2021/07/20 15:54:39;;;;;;;17.05;3.55;;;;;;;;;;8258733;28;20391;-72
2021/07/20 15:58:47;;;;;;;8.48;4.10;;;;;;;;;;8257713;28;20376;-72
2021/07/20 16:02:52;;;;;;;8.20;3.80;;;;;;;;;;8257641;28;20366;-73
2021/07/20 16:06:58;;;;;;;11.32;3.53;;;;;;;;;;8241600;28;20448;-72
2021/07/20 16:11:04;;;;;;;7.43;4.00;;;;;;;;;;8236416;28;20468;-72
2021/07/20 16:15:26;;;;;;;8.95;3.65;;;;;;;;;;8220077;28;20491;-72
2021/07/20 16:19:31;;;;;;;6.60;3.22;;;;;;;;;;8259540;28;20506;-72
2021/07/20 16:23:36;;;;;;;13.05;3.63;;;;;;;;;;8241556;28;20376;-72
2021/07/20 16:27:42;;;;;;;10.25;3.47;;;;;;;;;;8273382;28;20333;-72
2021/07/20 16:31:47;;;;;;;10.25;3.28;;;;;;;;;;8258420;28;20440;-73
2021/07/20 16:36:14;;;;;;;7.40;3.83;;;;;;;;;;8260026;28;20390;-72
2021/07/20 16:40:20;;;;;;;12.10;4.03;;;;;;;;;;8258564;28;20048;-72
2021/07/20 16:44:25;;;;;;;12.03;5.10;;;;;;;;;;8256534;28;20463;-73
2021/07/20 16:48:31;;;;;;;14.43;3.70;;;;;;;;;;8258149;28;20809;-72
2021/07/20 16:52:36;;;;;;;8.18;3.45;;;;;;;;;;8240506;28;20071;-71
2021/07/20 16:56:45;;;;;;;11.60;5.07;;;;;;;;;;8256328;28;20371;-72
2021/07/20 17:00:53;;;;;;;14.27;4.70;;;;;;;;;;8258026;28;20337;-72
2021/07/20 17:05:00;;;;;;;10.65;4.57;;;;;;;;;;8239752;28;20484;-72
2021/07/20 17:09:08;;;;;;;11.27;4.13;;;;;;;;;;8255164;28;20367;-72
2021/07/20 17:13:13;;;;;;;12.30;4.72;;;;;;;;;;8259971;28;20447;-71
2021/07/20 17:17:22;;;;;;;12.93;4.63;;;;;;;;;;8257437;28;20032;-71
2021/07/20 17:21:27;;;;;;;16.27;5.28;;;;;;;;;;8256857;28;20479;-72
2021/07/20 17:25:32;;;;;;;11.15;5.18;;;;;;;;;;8255088;28;20325;-72
2021/07/20 17:29:38;;;;;;;14.57;5.57;;;;;;;;;;8256359;28;20508;-71
2021/07/20 17:33:43;;;;;;;13.60;5.40;;;;;;;;;;8239874;28;20465;-72
2021/07/20 17:37:53;;;;;;;16.63;5.40;;;;;;;;;;8256508;28;20468;-72
2021/07/20 17:42:14;;;;;;;32.50;7.00;;;;;;;;;;8257063;28;20464;-72
2021/07/20 17:46:29;;;;;;;10.20;4.85;;;;;;;;;;8256543;28;20464;-72
2021/07/20 17:50:34;;;;;;;10.35;5.68;;;;;;;;;;8255286;28;20371;-72
2021/07/20 17:54:39;;;;;;;12.30;5.78;;;;;;;;;;8222734;28;20518;-72
2021/07/20 17:58:44;;;;;;;9.52;5.00;;;;;;;;;;8255557;28;20364;-72
2021/07/20 18:02:49;;;;;;;17.83;6.20;;;;;;;;;;8256929;28;20349;-71
2021/07/20 18:06:58;;;;;;;12.35;5.22;;;;;;;;;;8256094;28;20487;-75
2021/07/20 18:11:03;;;;;;;16.25;5.68;;;;;;;;;;8256557;28;20071;-73
2021/07/20 18:15:09;;;;;;;15.05;5.38;;;;;;;;;;8260888;28;20060;-72
2021/07/20 18:19:15;;;;;;;17.83;6.30;;;;;;;;;;8262618;28;20049;-71
2021/07/20 18:23:21;;;;;;;9.25;5.15;;;;;;;;;;8260966;28;20355;-73
2021/07/20 18:27:26;;;;;;;12.60;5.65;;;;;;;;;;8260840;28;20079;-73
2021/07/20 18:31:31;;;;;;;17.38;5.85;;;;;;;;;;8244063;28;20333;-72
2021/07/20 18:35:36;;;;;;;9.20;5.40;;;;;;;;;;8262009;28;20494;-71
2021/07/20 18:39:41;;;;;;;10.38;5.43;;;;;;;;;;8262560;28;20357;-72
2021/07/20 18:43:49;;;;;;;15.98;6.75;;;;;;;;;;8262208;28;20332;-75
2021/07/20 18:52:04;;;;;;;13.93;6.40;;;;;;;;;;8289876;27;21033;-72
2021/07/20 18:56:10;;;;;;;15.00;6.63;;;;;;;;;;8284969;28;20398;-72
2021/07/20 19:00:16;;;;;;;14.65;6.35;;;;;;;;;;8285510;28;20341;-72
2021/07/20 19:04:21;;;;;;;11.75;5.55;;;;;;;;;;8285455;28;20378;-72
2021/07/20 19:08:27;;;;;;;14.55;5.70;;;;;;;;;;8286306;28;20455;-72
2021/07/20 19:12:32;;;;;;;11.95;5.95;;;;;;;;;;8284039;28;20367;-72
2021/07/20 19:16:37;;;;;;;15.05;6.10;;;;;;;;;;8285859;28;20464;-72
2021/07/20 19:20:43;;;;;;;8.75;4.75;;;;;;;;;;8283253;28;20383;-72
2021/07/20 19:24:48;;;;;;;13.05;6.30;;;;;;;;;;8285076;28;20391;-72
2021/07/20 19:28:53;;;;;;;8.23;5.20;;;;;;;;;;8282832;28;20474;-72
2021/07/20 19:32:58;;;;;;;10.70;5.25;;;;;;;;;;8284820;28;20474;-71
2021/07/20 19:37:04;;;;;;;13.07;4.65;;;;;;;;;;8283283;28;20371;-72
2021/07/20 19:41:09;;;;;;;11.35;5.45;;;;;;;;;;8282881;28;20376;-72
2021/07/20 19:45:15;;;;;;;8.88;5.22;;;;;;;;;;8283249;28;20045;-73
2021/07/20 19:49:20;;;;;;;11.57;4.70;;;;;;;;;;8281011;28;20464;-72
2021/07/20 19:53:25;;;;;;;13.63;5.60;;;;;;;;;;8283844;28;20486;-72
2021/07/20 19:57:32;;;;;;;11.75;5.18;;;;;;;;;;8281719;28;20348;-72
2021/07/20 20:01:37;;;;;;;14.60;4.93;;;;;;;;;;8272024;28;20348;-73
2021/07/20 20:05:44;;;;;;;16.33;5.35;;;;;;;;;;8262892;28;20487;-72
2021/07/20 20:09:50;;;;;;;14.07;5.63;;;;;;;;;;8261932;28;20368;-72
2021/07/20 20:13:55;;;;;;;14.05;5.43;;;;;;;;;;8260545;28;20045;-74
2021/07/20 20:18:01;;;;;;;14.23;5.82;;;;;;;;;;8261564;28;20387;-71
2021/07/20 20:22:07;;;;;;;9.18;4.85;;;;;;;;;;8261002;28;20045;-72
2021/07/20 20:26:13;;;;;;;21.48;6.18;;;;;;;;;;8243742;28;20099;-73
2021/07/20 20:30:18;;;;;;;9.70;5.05;;;;;;;;;;8227425;28;20483;-72
2021/07/20 20:34:23;;;;;;;15.07;5.90;;;;;;;;;;8261128;28;20510;-72
2021/07/20 20:38:27;;;;;;;7.68;4.22;;;;;;;;;;8259934;28;20063;-72
2021/07/20 20:42:32;;;;;;;16.35;4.88;;;;;;;;;;8243768;28;20095;-72
2021/07/20 20:46:39;;;;;;;11.50;4.20;;;;;;;;;;8260775;28;20056;-71
2021/07/20 20:50:45;;;;;;;9.18;4.05;;;;;;;;;;8259842;28;20515;-72
2021/07/20 20:54:50;;;;;;;9.82;4.00;;;;;;;;;;8260101;28;20111;-71
2021/07/20 20:58:54;;;;;;;6.70;3.53;;;;;;;;;;8242091;28;20379;-73
2021/07/20 21:03:00;;;;;;;9.93;3.65;;;;;;;;;;8227228;28;20064;-73
2021/07/20 21:07:06;;;;;;;6.63;3.72;;;;;;;;;;8227556;28;20111;-72
2021/07/20 21:11:11;;;;;;;12.30;4.07;;;;;;;;;;8227075;28;20468;-71
2021/07/20 21:15:16;;;;;;;4.72;3.22;;;;;;;;;;8226630;28;20056;-73
2021/07/20 21:19:21;;;;;;;11.90;4.30;;;;;;;;;;8226031;28;20354;-72
2021/07/20 21:23:26;;;;;;;8.23;3.90;;;;;;;;;;8228545;28;20477;-71
2021/07/20 21:27:31;;;;;;;9.43;4.00;;;;;;;;;;8242060;28;20456;-71
2021/07/20 21:31:36;;;;;;;7.18;3.40;;;;;;;;;;8227084;28;20471;-73
2021/07/20 21:35:41;;;;;;;4.80;2.83;;;;;;;;;;8208941;28;20391;-72
2021/07/20 21:39:47;;;;;;;5.50;3.30;;;;;;;;;;8227179;28;20045;-72
2021/07/20 21:43:52;;;;;;;4.75;2.92;;;;;;;;;;8226150;28;20357;-72
2021/07/20 21:47:56;;;;;;;6.63;3.55;;;;;;;;;;8224966;28;20567;-72
2021/07/20 21:52:04;;;;;;;9.93;3.78;;;;;;;;;;8224203;28;20472;-72
2021/07/20 21:56:09;;;;;;;7.32;3.40;;;;;;;;;;8226207;28;20440;-73
2021/07/20 22:00:26;;;;;;;6.85;3.05;;;;;;;;;;8224524;28;20364;-72
2021/07/20 22:04:30;;;;;;;8.88;3.55;;;;;;;;;;8227268;28;20527;-72
2021/07/20 22:08:36;;;;;;;6.03;3.08;;;;;;;;;;8227198;28;20057;-71
2021/07/20 22:12:42;;;;;;;7.10;3.35;;;;;;;;;;8227538;28;20108;-73
2021/07/20 22:16:47;;;;;;;4.35;3.00;;;;;;;;;;8226190;28;20397;-71
2021/07/20 22:20:52;;;;;;;6.53;3.42;;;;;;;;;;8225978;28;20499;-72
2021/07/20 22:24:57;;;;;;;5.00;2.92;;;;;;;;;;8223828;28;20465;-71
2021/07/20 22:29:00;;;;;;;6.68;3.10;;;;;;;;;;8223566;28;20381;-71
2021/07/20 22:33:09;;;;;;;8.70;3.58;;;;;;;;;;8223255;28;20041;-73
2021/07/20 22:37:14;;;;;;;6.80;2.95;;;;;;;;;;8223367;28;20376;-72
2021/07/20 22:41:19;;;;;;;7.40;3.00;;;;;;;;;;8225663;28;20485;-71
2021/07/20 22:45:24;;;;;;;8.60;3.45;;;;;;;;;;8224672;28;20499;-72
2021/07/20 22:49:30;;;;;;;6.10;3.08;;;;;;;;;;8223089;28;20480;-72
2021/07/20 22:53:35;;;;;;;6.60;3.05;;;;;;;;;;8224812;28;20487;-72
2021/07/20 22:57:39;;;;;;;9.27;2.67;;;;;;;;;;8224620;28;20364;-71
2021/07/20 23:01:42;;;;;;;9.05;3.28;;;;;;;;;;8224155;28;20108;-73
2021/07/20 23:05:48;;;;;;;3.65;2.67;;;;;;;;;;8222732;28;20386;-71
2021/07/20 23:09:53;;;;;;;8.20;3.22;;;;;;;;;;8223414;28;20380;-72
2021/07/20 23:13:58;;;;;;;7.15;2.97;;;;;;;;;;8224168;28;20473;-72
2021/07/20 23:18:05;;;;;;;9.10;3.53;;;;;;;;;;8224326;28;20352;-72
2021/07/20 23:22:10;;;;;;;5.32;2.88;;;;;;;;;;8224114;28;20049;-72
2021/07/20 23:26:16;;;;;;;6.68;3.15;;;;;;;;;;8224527;28;20353;-72
2021/07/20 23:30:23;;;;;;;8.02;3.42;;;;;;;;;;8223866;28;20350;-72
2021/07/20 23:34:29;;;;;;;7.20;3.30;;;;;;;;;;8222889;28;20049;-72
2021/07/20 23:38:34;;;;;;;7.90;3.60;;;;;;;;;;8229239;28;20407;-72
2021/07/20 23:42:39;;;;;;;7.88;3.15;;;;;;;;;;8228741;28;20464;-72
2021/07/20 23:46:45;;;;;;;10.27;3.15;;;;;;;;;;8228880;28;20511;-72
2021/07/20 23:50:50;;;;;;;6.63;3.60;;;;;;;;;;8229832;28;20495;-71
2021/07/20 23:54:55;;;;;;;9.13;3.22;;;;;;;;;;8212459;28;20350;-72
2021/07/20 23:59:00;;;;;;;6.88;3.05;;;;;;;;;;8229740;28;20408;-72
